Time;durP1;ratioP1;P1;durP2;ratioP2;P2;SDS_P1;SDS_P2;PMS_P1;PMS_P2;Temp;Humidity;BMP_temperature;BMP_pressure;BME280_temperature;BME280_humidity;BME280_pressure;Samples;Min_cycle;Max_cycle;Signal;HPM_P1;HPM_P2
2023/06/17 00:00:32;;;;;;;14.10;12.17;;;14.30;99.90;;;;;;6097715;23;20446;-86
2023/06/17 00:03:00;;;;;;;15.50;9.43;;;;;;;;;;6092880;23;20419;-86
2023/06/17 00:05:27;;;;;;;9.40;8.27;;;14.30;99.90;;;;;;6086717;23;20411;-86
2023/06/17 00:07:54;;;;;;;10.40;9.37;;;14.30;99.90;;;;;;6079701;23;20407;-86
2023/06/17 00:10:21;;;;;;;29.33;26.17;;;14.30;99.90;;;;;;6084544;23;20459;-86
2023/06/17 00:12:48;;;;;;;10.30;9.40;;;14.30;99.90;;;;;;6087833;23;20438;-86
2023/06/17 00:15:18;;;;;;;11.90;10.70;;;14.40;99.90;;;;;;6080073;23;20411;-86
2023/06/17 00:17:47;;;;;;;10.90;9.17;;;14.30;99.90;;;;;;6081827;23;20410;-86
2023/06/17 00:20:14;;;;;;;10.07;9.10;;;14.20;99.90;;;;;;6082216;23;20760;-86
2023/06/17 00:22:43;;;;;;;10.00;8.93;;;13.90;99.90;;;;;;6083191;23;20494;-86
2023/06/17 00:25:11;;;;;;;9.17;8.27;;;14.30;99.90;;;;;;6082953;23;20473;-86
2023/06/17 00:27:38;;;;;;;9.67;8.77;;;14.30;99.90;;;;;;6084066;23;20796;-87
2023/06/17 00:30:07;;;;;;;9.13;8.40;;;14.30;99.90;;;;;;6084411;23;20507;-87
2023/06/17 00:32:33;;;;;;;9.40;8.47;;;14.20;99.90;;;;;;6086436;23;20419;-87
2023/06/17 00:35:03;;;;;;;10.40;9.13;;;14.20;99.90;;;;;;6088535;23;20438;-88
2023/06/17 00:37:30;;;;;;;9.90;8.90;;;14.20;99.90;;;;;;6084309;23;20407;-86
2023/06/17 00:39:57;;;;;;;9.30;8.40;;;14.20;99.90;;;;;;6084062;23;20835;-86
2023/06/17 00:42:24;;;;;;;8.70;7.80;;;14.30;99.90;;;;;;6084486;23;20435;-87
2023/06/17 00:44:51;;;;;;;11.40;9.07;;;14.20;99.90;;;;;;6093381;23;20415;-83
2023/06/17 00:47:18;;;;;;;8.83;8.03;;;;;;;;;;6095656;23;20466;-87
2023/06/17 00:49:47;;;;;;;9.60;8.60;;;14.20;99.90;;;;;;6090458;23;20466;-86
2023/06/17 00:52:15;;;;;;;9.60;8.60;;;14.20;99.90;;;;;;6092208;23;20418;-87
2023/06/17 00:54:43;;;;;;;11.10;9.83;;;14.20;99.90;;;;;;6095646;23;20411;-85
2023/06/17 00:57:13;;;;;;;10.37;9.33;;;14.30;99.90;;;;;;6095332;23;20399;-86
2023/06/17 00:59:42;;;;;;;11.23;10.13;;;14.40;99.90;;;;;;6093740;23;20422;-86
2023/06/17 01:02:10;;;;;;;11.30;10.30;;;14.40;99.90;;;;;;6089552;23;20411;-85
2023/06/17 01:04:38;;;;;;;9.23;8.27;;;14.30;99.90;;;;;;6086617;23;20415;-86
2023/06/17 01:07:16;;;;;;;9.63;8.73;;;14.30;99.90;;;;;;6086775;23;20406;-87
2023/06/17 01:09:49;;;;;;;10.37;9.37;;;14.30;99.90;;;;;;6089379;23;20475;-85
2023/06/17 01:12:18;;;;;;;10.03;9.13;;;14.30;99.90;;;;;;6093550;23;20375;-85
2023/06/17 01:14:49;;;;;;;12.20;10.63;;;14.30;99.90;;;;;;6092751;23;20927;-87
2023/06/17 01:17:17;;;;;;;8.53;7.73;;;14.30;99.90;;;;;;6087422;23;20459;-86
2023/06/17 01:19:48;;;;;;;9.13;8.23;;;14.20;99.90;;;;;;6077043;23;20458;-87
2023/06/17 01:22:17;;;;;;;10.57;9.57;;;14.10;99.90;;;;;;6077266;23;20423;-87
2023/06/17 01:24:46;;;;;;;9.10;8.30;;;14.10;99.90;;;;;;6088068;23;20409;-86
2023/06/17 01:27:15;;;;;;;11.37;10.03;;;14.20;99.90;;;;;;6096784;23;20410;-83
2023/06/17 01:29:43;;;;;;;8.63;7.73;;;;;;;;;;6096058;23;20516;-85
2023/06/17 01:32:10;;;;;;;11.70;8.47;;;14.30;99.90;;;;;;6089600;23;20913;-86
2023/06/17 01:34:42;;;;;;;11.17;9.10;;;14.30;99.90;;;;;;6097009;23;20402;-85
2023/06/17 01:37:11;;;;;;;13.50;10.67;;;14.20;99.90;;;;;;6097103;23;20376;-85
2023/06/17 01:39:41;;;;;;;12.03;10.77;;;14.30;99.90;;;;;;6091402;23;20534;-86
2023/06/17 01:42:15;;;;;;;11.07;9.97;;;14.40;99.90;;;;;;6081437;23;20399;-87
2023/06/17 01:44:43;;;;;;;12.57;10.20;;;14.30;99.90;;;;;;6085728;23;20398;-87
2023/06/17 01:47:10;;;;;;;13.63;10.40;;;14.30;99.90;;;;;;6083157;23;20482;-87
2023/06/17 01:49:38;;;;;;;11.60;10.50;;;;;;;;;;6081786;23;20502;-86
2023/06/17 01:52:07;;;;;;;12.27;10.00;;;14.40;99.90;;;;;;6080831;23;20411;-86
2023/06/17 01:54:34;;;;;;;11.03;10.07;;;14.30;99.90;;;;;;6079769;23;20414;-86
2023/06/17 01:57:01;;;;;;;11.23;10.00;;;14.30;99.90;;;;;;6080124;23;20506;-86
2023/06/17 01:59:30;;;;;;;10.80;9.70;;;14.20;99.90;;;;;;6083640;23;20402;-86
2023/06/17 02:01:57;;;;;;;9.77;8.97;;;14.30;99.90;;;;;;6095446;23;20415;-86
2023/06/17 02:04:24;;;;;;;10.47;9.57;;;14.30;99.90;;;;;;6094098;23;20415;-86
2023/06/17 02:06:51;;;;;;;9.77;8.97;;;14.30;99.90;;;;;;6093180;23;20430;-87
2023/06/17 02:09:19;;;;;;;12.10;10.40;;;;;;;;;;6080602;23;20443;-87
2023/06/17 02:11:46;;;;;;;11.30;10.23;;;;;;;;;;6077710;23;20455;-86
2023/06/17 02:14:13;;;;;;;11.23;10.10;;;14.50;99.90;;;;;;6092378;23;20411;-86
2023/06/17 02:16:47;;;;;;;11.23;10.10;;;14.40;99.90;;;;;;6092024;23;20428;-86
2023/06/17 02:19:15;;;;;;;12.10;10.90;;;14.50;99.90;;;;;;6092548;23;20850;-86
2023/06/17 02:21:43;;;;;;;11.23;10.13;;;14.40;99.90;;;;;;6094070;23;20390;-85
2023/06/17 02:24:10;;;;;;;13.67;11.40;;;14.40;99.90;;;;;;6092680;23;20422;-86
2023/06/17 02:26:37;;;;;;;12.27;11.00;;;14.40;99.90;;;;;;6093257;23;20392;-86
2023/06/17 02:29:04;;;;;;;17.10;14.30;;;14.40;99.90;;;;;;6089328;23;20407;-86
2023/06/17 02:31:32;;;;;;;15.80;14.17;;;14.40;99.90;;;;;;6082653;23;20447;-87
2023/06/17 02:34:02;;;;;;;15.30;13.73;;;14.40;99.90;;;;;;6081615;23;20426;-87
2023/06/17 02:36:28;;;;;;;14.20;12.80;;;14.40;99.90;;;;;;6082533;23;20412;-87
2023/06/17 02:38:56;;;;;;;13.70;11.87;;;;;;;;;;6089234;23;20406;-85
2023/06/17 02:41:23;;;;;;;13.93;12.23;;;14.30;99.90;;;;;;6072228;23;20435;-85
2023/06/17 02:43:50;;;;;;;16.33;13.00;;;14.30;99.90;;;;;;6074774;23;20490;-86
2023/06/17 02:46:16;;;;;;;18.30;14.73;;;14.30;99.90;;;;;;6074925;23;20503;-86
2023/06/17 02:48:43;;;;;;;16.80;13.90;;;14.30;99.90;;;;;;6080762;23;20430;-85
2023/06/17 02:51:14;;;;;;;17.97;14.10;;;14.20;99.90;;;;;;6081817;23;20557;-86
2023/06/17 02:53:41;;;;;;;13.50;12.30;;;14.30;99.90;;;;;;6081088;23;20536;-86
2023/06/17 02:56:08;;;;;;;13.00;11.70;;;14.30;99.90;;;;;;6078135;23;20769;-86
2023/06/17 02:58:36;;;;;;;11.93;10.83;;;14.60;99.90;;;;;;6078917;23;20417;-86
2023/06/17 03:01:04;;;;;;;13.00;11.23;;;14.30;99.90;;;;;;6078316;23;20966;-86
2023/06/17 03:03:34;;;;;;;13.97;11.50;;;14.30;99.90;;;;;;6077896;23;20415;-86
2023/06/17 03:06:03;;;;;;;18.17;13.57;;;14.70;99.90;;;;;;6077958;23;20391;-86
2023/06/17 03:08:32;;;;;;;14.30;12.80;;;14.30;99.90;;;;;;6078229;23;20422;-86
2023/06/17 03:10:59;;;;;;;17.70;12.27;;;14.40;99.90;;;;;;6073300;23;20446;-86
2023/06/17 03:13:26;;;;;;;15.87;12.00;;;;;;;;;;6072070;23;20415;-86
2023/06/17 03:15:54;;;;;;;16.40;14.73;;;14.30;99.90;;;;;;6073623;23;20486;-86
2023/06/17 03:18:22;;;;;;;12.73;11.43;;;14.30;99.90;;;;;;6073706;23;20419;-85
2023/06/17 03:20:50;;;;;;;13.53;12.23;;;14.30;99.90;;;;;;6074950;23;20419;-86
2023/06/17 03:23:17;;;;;;;13.43;12.10;;;14.30;99.90;;;;;;6076234;23;20808;-86
2023/06/17 03:25:46;;;;;;;15.10;13.50;;;14.30;99.90;;;;;;6076540;23;20470;-86
2023/06/17 03:28:13;;;;;;;15.90;14.23;;;14.40;99.90;;;;;;6077879;23;20422;-86
2023/06/17 03:30:41;;;;;;;14.40;12.70;;;14.30;99.90;;;;;;6078098;23;20447;-87
2023/06/17 03:33:08;;;;;;;13.67;12.10;;;14.30;99.90;;;;;;6080903;23;20421;-86
2023/06/17 03:35:36;;;;;;;14.13;12.57;;;;;;;;;;6085903;23;20426;-87
2023/06/17 03:38:03;;;;;;;13.67;12.27;;;14.40;99.90;;;;;;6077837;23;20778;-86
2023/06/17 03:40:30;;;;;;;13.00;11.70;;;14.50;99.90;;;;;;6074143;23;20442;-86
2023/06/17 03:42:58;;;;;;;16.80;13.60;;;14.50;99.90;;;;;;6072548;23;20585;-86
2023/06/17 03:45:25;;;;;;;16.00;13.60;;;14.40;99.90;;;;;;6072467;23;20430;-86
2023/06/17 03:47:51;;;;;;;14.87;13.40;;;14.40;99.90;;;;;;6084234;23;20391;-83
2023/06/17 03:50:18;;;;;;;14.63;13.10;;;14.50;99.90;;;;;;6075227;23;20474;-85
2023/06/17 03:52:45;;;;;;;14.63;12.17;;;14.50;99.90;;;;;;6080305;23;20497;-86
2023/06/17 03:55:12;;;;;;;14.43;12.90;;;;;;;;;;6091084;23;20381;-85
2023/06/17 03:57:40;;;;;;;15.10;13.80;;;14.50;99.90;;;;;;6091408;23;20431;-86
2023/06/17 04:00:10;;;;;;;14.30;12.20;;;14.50;99.90;;;;;;6091631;23;20410;-86
2023/06/17 04:02:37;;;;;;;13.23;12.00;;;14.50;99.90;;;;;;6085394;23;20413;-86
2023/06/17 04:05:06;;;;;;;13.87;12.40;;;14.50;99.90;;;;;;6094644;23;20395;-86
2023/06/17 04:07:34;;;;;;;13.80;12.40;;;14.70;99.90;;;;;;6095022;23;20478;-86
2023/06/17 04:10:00;;;;;;;13.23;11.83;;;14.50;99.90;;;;;;6093762;23;20467;-85
2023/06/17 04:12:27;;;;;;;14.30;12.83;;;14.40;99.90;;;;;;6078309;23;20457;-86
2023/06/17 04:14:54;;;;;;;15.40;13.70;;;14.20;99.90;;;;;;6078158;23;20442;-86
2023/06/17 04:17:23;;;;;;;14.67;13.27;;;14.60;99.90;;;;;;6078685;23;20497;-86
2023/06/17 04:19:50;;;;;;;14.73;13.33;;;14.60;99.90;;;;;;6077516;23;20960;-86
2023/06/17 04:22:17;;;;;;;15.60;14.00;;;14.60;99.90;;;;;;6088843;23;20408;-86
2023/06/17 04:24:43;;;;;;;32.63;13.83;;;14.70;99.90;;;;;;6093798;23;20486;-86
2023/06/17 04:27:11;;;;;;;14.87;13.30;;;;;;;;;;6088899;23;20418;-86
2023/06/17 04:29:38;;;;;;;15.00;13.40;;;14.60;99.90;;;;;;6084762;23;20439;-85
2023/06/17 04:32:10;;;;;;;14.47;12.63;;;14.50;99.90;;;;;;6081353;23;20475;-86
2023/06/17 04:34:42;;;;;;;14.13;12.70;;;14.60;99.90;;;;;;6079694;23;20396;-86
2023/06/17 04:37:09;;;;;;;13.67;12.30;;;14.60;99.90;;;;;;6078517;23;20471;-86
2023/06/17 04:39:36;;;;;;;15.33;12.83;;;14.70;99.90;;;;;;6078387;23;20476;-86
2023/06/17 04:42:02;;;;;;;18.30;14.00;;;14.70;99.90;;;;;;6079394;23;20391;-85
2023/06/17 04:44:31;;;;;;;13.73;12.43;;;14.80;99.90;;;;;;6080476;23;20888;-86
2023/06/17 04:46:59;;;;;;;15.93;12.83;;;;;;;;;;6078412;23;20471;-85
2023/06/17 04:49:26;;;;;;;13.93;12.53;;;15.20;99.90;;;;;;6076527;23;20506;-85
2023/06/17 04:51:55;;;;;;;13.30;12.00;;;14.90;99.90;;;;;;6078294;23;20924;-86
2023/06/17 04:54:24;;;;;;;13.87;12.53;;;15.00;99.90;;;;;;6078677;23;20786;-85
2023/06/17 04:56:51;;;;;;;15.70;13.77;;;15.10;99.90;;;;;;6079924;23;20418;-85
2023/06/17 04:59:19;;;;;;;14.80;13.27;;;15.00;99.90;;;;;;6082452;23;20438;-85
2023/06/17 05:01:45;;;;;;;17.27;15.47;;;15.00;99.90;;;;;;6080453;23;20395;-85
2023/06/17 05:04:12;;;;;;;15.80;14.10;;;15.00;99.90;;;;;;6089207;23;20394;-86
2023/06/17 05:06:39;;;;;;;16.83;14.63;;;;;;;;;;6082323;23;20900;-87
2023/06/17 05:09:08;;;;;;;18.63;15.70;;;15.00;99.90;;;;;;6080389;23;20435;-86
2023/06/17 05:11:35;;;;;;;17.73;15.33;;;15.30;99.90;;;;;;6079283;23;20479;-86
2023/06/17 05:14:02;;;;;;;17.90;15.80;;;15.00;99.90;;;;;;6079637;23;20411;-86
2023/06/17 05:16:28;;;;;;;16.73;14.50;;;14.90;99.90;;;;;;6094282;23;20411;-85
2023/06/17 05:18:55;;;;;;;18.87;16.70;;;15.50;99.90;;;;;;6095248;23;20431;-86
2023/06/17 05:21:22;;;;;;;20.03;17.97;;;15.20;99.90;;;;;;6094763;23;20427;-85
2023/06/17 05:23:50;;;;;;;18.53;15.93;;;15.10;99.90;;;;;;6095853;23;20407;-85
2023/06/17 05:26:18;;;;;;;19.10;16.60;;;15.10;99.90;;;;;;6095050;23;20451;-85
2023/06/17 05:28:45;;;;;;;17.83;15.07;;;;;;;;;;6095287;23;20395;-85
2023/06/17 05:31:12;;;;;;;18.10;16.20;;;15.30;99.90;;;;;;6092157;23;20458;-83
2023/06/17 05:33:39;;;;;;;19.50;16.90;;;15.40;99.90;;;;;;6080211;23;20423;-85
2023/06/17 05:36:06;;;;;;;18.10;16.30;;;15.60;99.90;;;;;;6076081;23;20411;-86
2023/06/17 05:38:33;;;;;;;18.93;16.27;;;15.50;99.90;;;;;;6078981;23;20446;-86
2023/06/17 05:41:00;;;;;;;19.37;15.77;;;15.60;99.90;;;;;;6082374;23;20438;-86
2023/06/17 05:43:28;;;;;;;19.73;16.17;;;15.50;99.90;;;;;;6081179;23;20440;-86
2023/06/17 05:45:55;;;;;;;16.37;14.70;;;15.40;99.90;;;;;;6074082;23;20439;-85
2023/06/17 05:48:22;;;;;;;19.20;16.03;;;15.90;99.90;;;;;;6076236;23;20438;-85
2023/06/17 05:50:49;;;;;;;16.33;14.77;;;15.70;99.90;;;;;;6075449;23;20439;-87
2023/06/17 05:53:16;;;;;;;17.50;15.77;;;15.70;99.90;;;;;;6076349;23;20441;-85
2023/06/17 05:55:43;;;;;;;17.23;15.30;;;15.90;99.90;;;;;;6078952;23;20469;-86
2023/06/17 05:58:10;;;;;;;17.63;15.83;;;15.80;99.90;;;;;;6083309;23;20441;-86
2023/06/17 06:00:39;;;;;;;22.23;15.30;;;15.80;99.90;;;;;;6082880;23;20432;-86
2023/06/17 06:03:06;;;;;;;17.20;14.67;;;16.00;99.90;;;;;;6083650;23;20458;-85
2023/06/17 06:05:32;;;;;;;15.80;14.10;;;16.10;99.90;;;;;;6085648;23;20408;-86
2023/06/17 06:07:59;;;;;;;16.73;15.10;;;16.00;99.90;;;;;;6084632;23;20421;-86
2023/06/17 06:10:28;;;;;;;14.00;12.60;;;16.10;99.90;;;;;;6083664;23;20810;-86
2023/06/17 06:12:55;;;;;;;17.70;15.80;;;16.10;99.90;;;;;;6088152;23;20508;-84
2023/06/17 06:15:22;;;;;;;15.40;13.80;;;16.00;99.90;;;;;;6071027;23;20929;-85
2023/06/17 06:17:50;;;;;;;20.83;16.00;;;16.00;99.90;;;;;;6074177;23;20416;-85
2023/06/17 06:20:17;;;;;;;15.00;13.50;;;16.00;99.90;;;;;;6077454;23;20517;-85
2023/06/17 06:22:44;;;;;;;15.70;14.10;;;16.00;99.90;;;;;;6080650;23;20407;-85
2023/06/17 06:25:11;;;;;;;15.87;14.27;;;16.10;99.90;;;;;;6079722;23;20493;-86
2023/06/17 06:27:38;;;;;;;16.27;14.57;;;;;;;;;;6079160;23;20409;-86
2023/06/17 06:30:06;;;;;;;18.63;14.03;;;16.80;99.90;;;;;;6079721;23;20437;-86
2023/06/17 06:32:33;;;;;;;16.20;14.10;;;16.40;99.90;;;;;;6078374;23;20449;-86
2023/06/17 06:35:03;;;;;;;18.53;14.63;;;16.60;99.90;;;;;;6078827;23;20408;-86
2023/06/17 06:37:29;;;;;;;14.27;12.77;;;16.20;99.90;;;;;;6073809;23;20481;-86
2023/06/17 06:39:56;;;;;;;14.67;13.27;;;16.30;99.90;;;;;;6071958;23;20447;-85
2023/06/17 06:42:23;;;;;;;16.33;14.50;;;16.40;99.90;;;;;;6088983;23;20435;-86
2023/06/17 06:44:50;;;;;;;15.50;13.53;;;16.50;99.90;;;;;;6092912;23;20404;-86
2023/06/17 06:47:19;;;;;;;15.00;13.53;;;16.50;99.90;;;;;;6082684;23;20475;-87
2023/06/17 06:49:47;;;;;;;14.87;13.47;;;16.40;99.90;;;;;;6078815;23;20532;-87
2023/06/17 06:52:16;;;;;;;14.93;13.43;;;16.60;99.90;;;;;;6078807;23;20781;-87
2023/06/17 06:54:42;;;;;;;18.30;14.60;;;16.70;99.90;;;;;;6078495;23;20491;-87
2023/06/17 06:57:09;;;;;;;15.57;13.97;;;16.80;99.90;;;;;;6078051;23;20440;-85
2023/06/17 06:59:36;;;;;;;16.43;14.83;;;16.40;99.90;;;;;;6077737;23;20540;-85
2023/06/17 07:02:03;;;;;;;17.00;14.60;;;16.70;99.90;;;;;;6078804;23;20416;-85
2023/06/17 07:04:30;;;;;;;17.47;14.73;;;16.80;99.90;;;;;;6078309;23;20417;-86
2023/06/17 07:06:57;;;;;;;17.77;16.17;;;17.00;99.90;;;;;;6078531;23;20415;-85
2023/06/17 07:09:25;;;;;;;15.90;14.30;;;17.20;99.90;;;;;;6077584;23;20413;-86
2023/06/17 07:11:52;;;;;;;16.27;14.60;;;17.20;99.90;;;;;;6080376;23;20444;-86
2023/06/17 07:14:33;;;;;;;19.93;17.97;;;16.70;99.90;;;;;;6078453;23;20437;-86
2023/06/17 07:17:00;;;;;;;18.97;14.20;;;;;;;;;;6078432;23;20435;-86
2023/06/17 07:19:27;;;;;;;16.50;15.00;;;16.70;99.90;;;;;;6082182;23;20411;-86
2023/06/17 07:21:53;;;;;;;18.07;16.17;;;17.20;99.90;;;;;;6080309;23;20444;-86
2023/06/17 07:24:20;;;;;;;16.87;15.27;;;16.90;99.90;;;;;;6080043;23;20446;-86
2023/06/17 07:26:48;;;;;;;18.13;16.20;;;17.10;99.90;;;;;;6081155;23;20489;-86
2023/06/17 07:29:15;;;;;;;17.53;15.77;;;17.20;99.90;;;;;;6083915;23;20441;-85
2023/06/17 07:31:42;;;;;;;19.00;15.70;;;17.20;99.90;;;;;;6073866;23;20524;-85
2023/06/17 07:34:09;;;;;;;15.13;13.67;;;;;;;;;;6074957;23;20422;-85
2023/06/17 07:36:36;;;;;;;17.33;15.53;;;17.20;99.90;;;;;;6074480;23;20418;-85
2023/06/17 07:39:03;;;;;;;15.47;13.90;;;17.40;99.90;;;;;;6073296;23;20489;-86
2023/06/17 07:41:30;;;;;;;17.10;15.30;;;;;;;;;;6088185;23;20455;-87
2023/06/17 07:44:01;;;;;;;17.53;15.33;;;17.40;99.90;;;;;;6094339;23;20700;-87
2023/06/17 07:46:31;;;;;;;19.57;17.57;;;;;;;;;;6086492;23;20397;-88
2023/06/17 07:48:58;;;;;;;17.33;15.50;;;17.50;99.90;;;;;;6085441;23;20405;-87
2023/06/17 07:51:25;;;;;;;17.30;15.60;;;;;;;;;;6085570;23;20426;-88
2023/06/17 07:53:52;;;;;;;18.87;17.00;;;17.30;1.00;;;;;;6079614;23;20552;-85
2023/06/17 07:56:20;;;;;;;20.40;16.17;;;17.40;99.90;;;;;;6084096;23;20415;-85
2023/06/17 07:58:46;;;;;;;17.20;15.43;;;17.40;1.00;;;;;;6081763;23;20520;-87
2023/06/17 08:01:15;;;;;;;18.93;17.20;;;17.50;99.90;;;;;;6080955;23;20502;-86
2023/06/17 08:03:42;;;;;;;18.37;16.63;;;17.50;1.00;;;;;;6084611;23;20410;-86
2023/06/17 08:06:13;;;;;;;19.87;16.33;;;17.60;99.90;;;;;;6082657;23;20418;-86
2023/06/17 08:08:40;;;;;;;18.50;16.60;;;17.40;1.00;;;;;;6083154;23;20398;-86
2023/06/17 08:11:07;;;;;;;19.23;17.27;;;17.40;1.00;;;;;;6082289;23;20433;-86
2023/06/17 08:13:34;;;;;;;19.40;17.50;;;17.40;1.00;;;;;;6084931;23;20959;-86
2023/06/17 08:16:04;;;;;;;20.30;17.13;;;17.60;99.90;;;;;;6082283;23;20488;-87
2023/06/17 08:18:33;;;;;;;21.47;18.17;;;17.50;65.90;;;;;;6086299;23;20410;-85
2023/06/17 08:21:01;;;;;;;18.23;16.37;;;17.60;99.90;;;;;;6096236;23;20426;-87
2023/06/17 08:23:28;;;;;;;18.40;16.47;;;17.60;99.90;;;;;;6093248;23;20406;-87
2023/06/17 08:25:56;;;;;;;18.53;16.73;;;17.60;83.40;;;;;;6085222;23;20414;-86
2023/06/17 08:28:23;;;;;;;17.63;15.77;;;17.50;99.90;;;;;;6094424;23;20407;-86
2023/06/17 08:30:51;;;;;;;17.00;15.23;;;18.00;1.00;;;;;;6084471;23;20426;-86
2023/06/17 08:33:19;;;;;;;17.80;15.97;;;17.90;1.00;;;;;;6081041;23;20489;-86
2023/06/17 08:35:47;;;;;;;18.40;16.60;;;17.70;99.90;;;;;;6082409;23;20415;-86
2023/06/17 08:38:14;;;;;;;18.83;16.83;;;17.80;1.00;;;;;;6084648;23;20415;-87
2023/06/17 08:40:45;;;;;;;25.57;22.77;;;17.70;1.00;;;;;;6082255;23;20466;-86
2023/06/17 08:43:17;;;;;;;15.73;14.30;;;18.00;99.90;;;;;;6083925;23;20394;-87
2023/06/17 08:45:46;;;;;;;15.97;14.53;;;18.30;1.00;;;;;;6083796;23;20395;-86
2023/06/17 08:48:13;;;;;;;18.13;16.23;;;18.70;1.00;;;;;;6082525;23;20414;-88
2023/06/17 08:50:41;;;;;;;18.23;16.50;;;18.30;99.90;;;;;;6082346;23;20426;-86
2023/06/17 08:53:10;;;;;;;16.97;15.30;;;17.90;1.00;;;;;;6082911;23;20453;-86
2023/06/17 08:55:37;;;;;;;20.20;16.77;;;18.20;99.90;;;;;;6081649;23;20415;-86
2023/06/17 08:58:05;;;;;;;16.43;14.83;;;18.20;1.00;;;;;;6080835;23;20426;-86
2023/06/17 09:00:32;;;;;;;16.70;15.20;;;18.20;99.90;;;;;;6081509;23;20765;-87
2023/06/17 09:03:00;;;;;;;15.77;14.37;;;18.20;99.90;;;;;;6082973;23;20433;-87
2023/06/17 09:05:27;;;;;;;15.27;13.67;;;18.20;99.90;;;;;;6082862;23;20422;-87
2023/06/17 09:07:54;;;;;;;14.23;12.40;;;18.20;1.00;;;;;;6081515;23;20449;-87
2023/06/17 09:10:23;;;;;;;17.10;15.30;;;18.30;99.90;;;;;;6081391;23;20506;-88
2023/06/17 09:12:50;;;;;;;14.83;13.40;;;18.50;1.00;;;;;;6082419;23;20443;-88
2023/06/17 09:15:18;;;;;;;15.90;13.77;;;18.40;99.90;;;;;;6088307;23;20490;-86
2023/06/17 09:17:46;;;;;;;14.27;12.97;;;18.50;1.00;;;;;;6086335;23;20411;-87
2023/06/17 09:20:14;;;;;;;14.20;12.80;;;18.40;99.90;;;;;;6079681;23;20495;-87
2023/06/17 09:22:42;;;;;;;15.27;13.77;;;18.60;99.90;;;;;;6081287;23;20407;-87
2023/06/17 09:25:12;;;;;;;16.80;14.70;;;18.80;1.00;;;;;;6080828;23;20434;-87
2023/06/17 09:27:50;;;;;;;15.43;14.03;;;18.60;1.00;;;;;;6086843;23;20787;-87
2023/06/17 09:30:20;;;;;;;16.97;15.27;;;18.50;99.90;;;;;;6082615;23;20433;-88
2023/06/17 09:32:49;;;;;;;16.87;15.10;;;18.40;1.00;;;;;;6080638;23;20440;-88
2023/06/17 09:35:17;;;;;;;17.20;15.57;;;18.40;99.90;;;;;;6080045;23;20478;-87
2023/06/17 09:37:45;;;;;;;14.03;12.57;;;18.50;99.90;;;;;;6079278;23;20462;-87
2023/06/17 09:40:13;;;;;;;17.23;15.30;;;18.50;99.90;;;;;;6078872;23;20438;-87
2023/06/17 09:42:40;;;;;;;17.30;15.67;;;18.60;99.90;;;;;;6080141;23;20395;-87
2023/06/17 09:45:12;;;;;;;15.90;14.37;;;18.60;1.00;;;;;;6088410;23;20430;-85
2023/06/17 09:47:39;;;;;;;16.40;14.80;;;18.50;1.00;;;;;;6096448;23;20383;-84
2023/06/17 09:50:09;;;;;;;15.10;13.63;;;18.40;1.00;;;;;;6079954;23;20458;-87
2023/06/17 09:52:38;;;;;;;16.63;15.03;;;18.50;1.00;;;;;;6077233;23;20467;-88
2023/06/17 09:55:06;;;;;;;15.00;13.50;;;18.50;1.00;;;;;;6074072;23;20411;-85
2023/06/17 09:57:34;;;;;;;15.80;14.30;;;18.80;1.00;;;;;;6073832;23;20414;-87
2023/06/17 10:00:10;;;;;;;16.93;15.13;;;19.00;99.90;;;;;;6077376;23;20542;-87
2023/06/17 10:02:39;;;;;;;15.87;14.33;;;19.20;1.00;;;;;;6082366;23;20430;-87
2023/06/17 10:05:07;;;;;;;20.60;12.70;;;19.20;99.90;;;;;;6082534;23;20418;-86
2023/06/17 10:07:36;;;;;;;15.13;13.73;;;19.70;37.50;;;;;;6080818;23;20408;-86
2023/06/17 10:10:04;;;;;;;17.37;15.77;;;19.50;64.00;;;;;;6079426;23;20474;-87
2023/06/17 10:12:32;;;;;;;15.10;13.70;;;19.40;99.90;;;;;;6080152;23;20485;-87
2023/06/17 10:15:00;;;;;;;15.17;13.80;;;19.50;99.90;;;;;;6079747;23;20411;-87
2023/06/17 10:17:27;;;;;;;15.83;14.33;;;;;;;;;;6080099;23;20442;-87
2023/06/17 10:19:56;;;;;;;15.50;14.00;;;19.40;99.90;;;;;;6080201;23;20461;-88
2023/06/17 10:22:25;;;;;;;17.37;15.67;;;19.40;99.90;;;;;;6079623;23;20407;-86
2023/06/17 10:24:52;;;;;;;16.57;14.93;;;19.10;1.00;;;;;;6086020;23;20423;-86
2023/06/17 10:27:20;;;;;;;15.63;14.00;;;19.20;1.00;;;;;;6094500;23;20412;-87
2023/06/17 10:29:49;;;;;;;16.07;14.33;;;19.80;99.90;;;;;;6086687;23;20406;-87
2023/06/17 10:32:22;;;;;;;16.70;15.00;;;19.30;1.00;;;;;;6083260;23;20487;-88
2023/06/17 10:35:12;;;;;;;14.77;13.47;;;19.00;99.90;;;;;;6094944;23;20406;-85
2023/06/17 10:37:40;;;;;;;13.57;11.93;;;19.20;99.90;;;;;;6095253;23;20399;-87
2023/06/17 10:40:39;;;;;;;15.03;13.73;;;19.20;99.90;;;;;;6094110;23;20443;-87
2023/06/17 10:43:22;;;;;;;16.97;14.07;;;19.00;99.90;;;;;;6017298;23;20418;-87
2023/06/17 10:45:54;;;;;;;14.77;13.37;;;19.00;1.00;;;;;;6093584;23;20411;-86
2023/06/17 10:48:25;;;;;;;15.63;14.03;;;19.00;1.00;;;;;;6091574;23;20406;-87
2023/06/17 10:50:56;;;;;;;15.07;13.47;;;18.80;59.60;;;;;;6095403;23;20465;-88
2023/06/17 10:53:28;;;;;;;15.67;14.10;;;18.70;99.90;;;;;;6091772;23;20423;-86
2023/06/17 10:55:56;;;;;;;15.70;14.20;;;18.80;99.90;;;;;;6086594;23;20406;-87
2023/06/17 10:58:23;;;;;;;16.00;14.60;;;18.20;92.50;;;;;;6087192;23;20439;-86
2023/06/17 11:01:04;;;;;;;16.00;14.47;;;18.60;1.00;;;;;;6095873;23;20463;-85
2023/06/17 11:03:31;;;;;;;13.87;12.67;;;18.80;1.00;;;;;;6092897;23;20414;-86
2023/06/17 11:06:01;;;;;;;14.73;12.73;;;19.00;1.00;;;;;;6085868;23;20474;-88
2023/06/17 11:08:29;;;;;;;13.77;12.47;;;19.00;1.00;;;;;;6086314;23;20408;-86
2023/06/17 11:11:10;;;;;;;14.30;12.87;;;19.20;1.00;;;;;;6084886;23;20434;-87
2023/06/17 11:13:38;;;;;;;13.03;11.73;;;19.40;99.90;;;;;;6085023;23;20498;-86
2023/06/17 11:16:06;;;;;;;13.33;12.10;;;19.60;1.00;;;;;;6085590;23;20415;-87
2023/06/17 11:18:36;;;;;;;13.80;12.17;;;20.10;1.00;;;;;;6084755;23;20407;-88
2023/06/17 11:21:06;;;;;;;13.27;11.90;;;20.20;99.90;;;;;;6084851;23;20427;-87
2023/06/17 11:23:33;;;;;;;13.80;12.60;;;20.20;99.90;;;;;;6082498;23;20391;-85
2023/06/17 11:26:01;;;;;;;13.90;12.60;;;20.10;53.70;;;;;;6087736;23;20411;-86
2023/06/17 11:28:28;;;;;;;11.57;10.67;;;20.50;99.90;;;;;;6091374;23;20422;-86
2023/06/17 11:30:56;;;;;;;11.43;10.53;;;20.40;99.90;;;;;;6093851;23;20439;-84
2023/06/17 11:33:24;;;;;;;10.13;9.30;;;;;;;;;;6095689;23;20462;-84
2023/06/17 11:35:53;;;;;;;12.40;11.30;;;20.30;1.00;;;;;;6093882;23;20527;-88
2023/06/17 11:38:22;;;;;;;13.20;11.63;;;20.10;1.00;;;;;;6088566;23;20403;-86
2023/06/17 11:40:53;;;;;;;10.93;9.93;;;20.00;1.00;;;;;;6083098;23;20427;-85
2023/06/17 11:43:24;;;;;;;10.70;9.70;;;19.70;99.90;;;;;;6083614;23;20397;-87
2023/06/17 11:45:53;;;;;;;12.87;9.50;;;19.80;84.80;;;;;;6085433;23;20407;-87
2023/06/17 11:48:20;;;;;;;13.50;10.83;;;19.70;1.00;;;;;;6085566;23;20744;-87
2023/06/17 11:50:50;;;;;;;8.47;7.77;;;19.00;1.00;;;;;;6087691;23;20427;-87
2023/06/17 11:53:17;;;;;;;7.93;7.33;;;17.70;99.90;;;;;;6086137;23;20454;-89
2023/06/17 11:55:45;;;;;;;8.73;8.03;;;17.60;99.90;;;;;;6085833;23;20414;-87
2023/06/17 11:58:13;;;;;;;10.07;9.17;;;17.20;35.90;;;;;;6085095;23;20423;-87
2023/06/17 12:00:40;;;;;;;9.63;8.83;;;17.00;99.90;;;;;;6081284;23;20435;-87
2023/06/17 12:03:07;;;;;;;10.63;9.63;;;16.80;8.50;;;;;;6081742;23;20417;-87
2023/06/17 12:05:34;;;;;;;11.40;10.40;;;16.70;99.90;;;;;;6082060;23;20469;-88
2023/06/17 12:08:02;;;;;;;11.77;10.57;;;16.80;99.90;;;;;;6081470;23;20445;-87
2023/06/17 12:10:28;;;;;;;11.43;10.23;;;16.80;99.90;;;;;;6082090;23;20807;-87
2023/06/17 12:12:58;;;;;;;11.83;10.73;;;16.40;99.90;;;;;;6081942;23;20422;-87
2023/06/17 12:15:29;;;;;;;12.60;11.40;;;16.80;99.90;;;;;;6082650;23;20417;-87
2023/06/17 12:18:09;;;;;;;13.87;12.57;;;16.80;99.90;;;;;;6084592;23;20763;-87
2023/06/17 12:20:37;;;;;;;12.97;11.57;;;17.00;99.90;;;;;;6083874;23;20763;-87
2023/06/17 12:23:04;;;;;;;12.67;11.57;;;17.20;99.90;;;;;;6089644;23;20409;-87
2023/06/17 12:25:34;;;;;;;11.50;10.40;;;17.10;99.90;;;;;;6087019;23;20437;-87
2023/06/17 12:28:02;;;;;;;7.80;7.20;;;17.30;99.90;;;;;;6078348;23;20422;-86
2023/06/17 12:30:29;;;;;;;7.90;7.10;;;;;;;;;;6085123;23;20439;-87
2023/06/17 12:32:57;;;;;;;7.50;6.90;;;17.20;99.90;;;;;;6096254;23;20414;-86
2023/06/17 12:35:24;;;;;;;9.07;8.17;;;17.20;1.00;;;;;;6094159;23;20454;-86
2023/06/17 12:37:54;;;;;;;8.10;7.40;;;17.30;1.00;;;;;;6087036;23;20441;-87
2023/06/17 12:40:21;;;;;;;8.60;7.80;;;17.40;99.90;;;;;;6086639;23;20429;-85
2023/06/17 12:42:48;;;;;;;9.50;8.70;;;17.40;99.90;;;;;;6096018;23;20416;-84